Detall de PIREP

Printer-friendly versionPDF version

[2016/01/16 07:38:00]
Flight IATA:CT0001
Pilot Number:041
Company ICAO:CAT
Aircraft Type:BE20/A
PAX:4
Departing Airport: LEDA
Destination Airport: LEVC
Alternate Airport:LERS
Online: VATSIM
Route:OSVAK H110 SEROX A34 SAURA
Flight Level:FL130
No Slew and time accel
No pause
Crash detect
Detect pilot in Cockpit between each 30 and 45 minutes
07:38 Zero fuel Weight: 8738 Lbs, Fuel Weight: 3677 Lbs
07:38 VATSIM:LEDA 151600Z 27013KT 9999 FEW020 11/02 Q1019
07:38 VATSIM:LEVC 160700Z 29008KT CAVOK 06/M03 Q1028 NOSIG
07:38 VOICE CATALONIAN
07:41 Parking Brakes off
07:46 Take-off
07:46 Take off Weight: 12384 Lbs
07:46 Wind: 263º @ 013 Knots Heading: 311º
07:46 POS N41º 43´ 45´´ E000º 31´ 59´´
07:46 Gear Up: 142 Knots
07:46 Flaps:1 at 142 Knots
07:46 Flaps:0 at 150 Knots
07:58 TOC
07:58 Fuel Weight: 3492 Lb
08:01 Wind:272º@032 Knots Heading: 203º Ground Speed: 223 Knots Altitude 13339 ft
08:16 Wind:285º@010 Knots Heading: 199º Ground Speed: 231 Knots Altitude 13123 ft
08:16 TOD
08:16 Fuel Weight: 3302 Lb
08:27 Flaps:1 at 169 Knots
08:31 Wind:307º@002 Knots Heading: 242º Ground Speed: 159 Knots Altitude 3520 ft
08:32 Gear Down: 144 Knots
08:33 Flaps:2 at 129 Knots
08:37 TouchDown:Rate -188 ft/min Speed: 98 Knots
08:37 Flaps:1 at 89 Knots
08:37 VATSIM:LEVC 160800Z 30012KT 270V330 9999 FEW040 07/M03 Q1028 NOSIG
08:37 Land
08:37 Wind:293º@007 Knots
08:37 Heading: 302º
08:37 Flight Duration: 00:51
08:37 Landing Weight: 11897 Lbs
08:37 POS N39º 29´ 16´´ W000º 28´ 42´´
08:39 Parking brakes on
08:39 Block to Block Duration: 00:58
08:39 Final Fuel: 3152 Lbls
08:39 Spent Fuel: 524 Lbls
08:39 Flight Length: 172 NM
08:39 TOD Land Length: 65 NM

Exportar CSV

Powered by Drupal - Modified by Danger4k